KDCM

Chester Catawba Regional Airport

Chester, South Carolina, USA
METAR KDCM 122055Z AUTO 00000KT 7SM CLR 09/M03 A3017 RMK AO2
Observed Flight Rules
Dec-12 @ 20:55 UTC (14 minutes ago) Visual Flight Rules
Visibility Clouds
7 miles
  • Clear skies
Temperatures Readings
Current 9°C / 48°F
Dewpoint -3°C / 27°F
Humidity 43%
Altimeter 30.17" Hg
Pressure 1022 hPa
Elevation 200
METAR KDCM 122055Z AUTO 00000KT 7SM CLR 09/M03 A3017 RMK AO2
Observed Flight Rules
Dec-12 @ 20:55 UTC
(14 minutes ago)
VFR
Clouds
  • Clear skies
Temperature Dewpoint
9°C / 48°F -3°C / 27°F
Humidity Altimeter Pressure
43% 30.17" Hg 1022 hPa